M I D A S
Marine Information and Data Acquisition System
Tripno 2286 of the Zeeleeuw from 2012-04-10 06:58:58 to 2012-04-10 14:41:08
Back to CruiseResearch ActivitiesStationsMapUnderway DataData graphs

EquipmentUnitsComments
TimeDGPSUTC
LatitudeDGPSDM.mWGS84
LongitudeDGPSDM.mWGS84
SpeedMeteo Stationm/sRelative wind speed
DirectionMeteo StationdegRelative wind direction
TemperatureMeteo Stationdeg CelciusAir temperature
PressureMeteo StationPaAtmospheric pressure
HumidityMeteo Station%Relative humidity
Missing or incorrect values are displayed as -999
Metereological data collected by the RV Zeeleeuw from 2012-04-10 06:36:12 to 2012-04-10 14:52:26
Time Latitude Longitude Speed Direction Temperature Pressure Humidity
2012-04-10 06:37 51°13.635 2°56.016 0.2 -999 9.1 99070 49
2012-04-10 06:38 51°13.635 2°56.016 -999 -999 9.1 99070 49
2012-04-10 06:39 51°13.635 2°56.015 0.1 15 9.1 99070 49
2012-04-10 06:40 51°13.635 2°56.014 0.1 32 9.1 99080 49
2012-04-10 06:41 51°13.635 2°56.014 -999 -999 9.1 99080 49
2012-04-10 06:42 51°13.635 2°56.014 2 -999 9.2 99080 49
2012-04-10 06:43 51°13.635 2°56.016 -999 37 9.2 99080 49
2012-04-10 06:44 51°13.636 2°56.017 -999 15 -999 -999 -999
2012-04-10 06:45 51°13.636 2°56.017 0.1 13 9.2 99080 49
2012-04-10 06:46 51°13.637 2°56.017 -999 9 9.2 99080 49
2012-04-10 06:47 51°13.638 2°56.017 -999 18 9.2 99080 49
2012-04-10 06:48 51°13.638 2°56.017 1.6 17 9.2 99080 49
2012-04-10 06:49 51°13.637 2°56.017 0.1 15 9.2 99080 48
2012-04-10 06:50 51°13.637 2°56.017 0.1 11 9.2 99080 49
2012-04-10 06:51 51°13.637 2°56.017 0.1 18 9.2 99080 48
2012-04-10 06:52 51°13.637 2°56.017 -999 20 9.2 99080 48
2012-04-10 06:53 51°13.636 2°56.017 -999 18 9.2 99080 48
2012-04-10 06:54 51°13.636 2°56.018 -999 26 9.2 99090 48
2012-04-10 06:55 51°13.636 2°56.019 0.1 28 9.2 99090 47
2012-04-10 06:56 51°13.636 2°56.019 0.1 25 9.2 99090 47
2012-04-10 06:57 51°13.636 2°56.019 5.7 32 9.2 99090 48
2012-04-10 06:58 51°13.635 2°56.018 2.2 22 9.2 99090 48
2012-04-10 06:59 51°13.641 2°55.989 4.7 33 9.2 99090 47
2012-04-10 07:00 51°13.659 2°55.919 3.7 33 9.2 99090 46
2012-04-10 07:01 51°13.672 2°55.847 5.8 27 9.2 99090 48
2012-04-10 07:02 51°13.71 2°55.757 5.8 27 9.2 99090 48
2012-04-10 07:03 51°13.776 2°55.679 0.3 40 9.2 99090 47
2012-04-10 07:04 51°13.857 2°55.626 3.6 17 9.2 99090 46
2012-04-10 07:05 51°13.931 2°55.604 0.4 39 9.2 99090 46
2012-04-10 07:06 51°13.976 2°55.613 4.3 325 9.2 99090 46
2012-04-10 07:07 51°13.988 2°55.547 3.4 305 9.3 99090 46
2012-04-10 07:08 51°14.063 2°55.476 4.3 309 9.3 99100 47
2012-04-10 07:09 51°14.174 2°55.378 6.2 309 9.3 99100 46
2012-04-10 07:10 51°14.296 2°55.272 6.6 309 9.3 99100 47
2012-04-10 07:11 51°14.427 2°55.15 7.2 311 9.3 99100 47
2012-04-10 07:12 51°14.568 2°55.01 9.3 308 9.3 99090 47
2012-04-10 07:13 51°14.67 2°54.775 11.5 306 9.3 99090 47
2012-04-10 07:14 51°14.621 2°54.478 13.8 302 9.3 99060 47
2012-04-10 07:15 51°14.502 2°54.198 15.3 326 9.3 99080 48
2012-04-10 07:16 51°14.386 2°53.909 12.3 328 9.3 99090 47
2012-04-10 07:17 51°14.254 2°53.64 12.3 329 9.3 99090 47
2012-04-10 07:18 51°14.135 2°53.36 15.2 327 9.3 99090 47
2012-04-10 07:19 51°14.006 2°53.094 10.9 304 9.2 99080 48
2012-04-10 07:20 51°13.888 2°52.816 10.7 327 9.2 99090 48
2012-04-10 07:21 51°13.763 2°52.547 11.4 330 9.2 99080 47
2012-04-10 07:22 51°13.633 2°52.283 13 329 9.2 99090 48
2012-04-10 07:23 51°13.513 2°52.006 11.6 328 9.2 99090 48
2012-04-10 07:24 51°13.385 2°51.741 14.6 331 9.2 99090 48
2012-04-10 07:25 51°13.263 2°51.47 14.1 329 9.2 99090 48
2012-04-10 07:26 51°13.138 2°51.202 12.7 327 9.2 99090 47
2012-04-10 07:27 51°13.022 2°50.923 17.7 330 9.2 99090 49
2012-04-10 07:28 51°12.903 2°50.646 13.1 327 9.2 99090 47
2012-04-10 07:29 51°12.807 2°50.348 13.5 328 9.2 99090 47
2012-04-10 07:30 51°12.701 2°50.059 13.6 330 9.2 99100 48
2012-04-10 07:31 51°12.6 2°49.765 13 326 9.2 99100 47
2012-04-10 07:32 51°12.502 2°49.469 13.7 283 9.2 99100 48
2012-04-10 07:33 51°12.39 2°49.184 6.7 330 9.2 99100 47
2012-04-10 07:34 51°12.284 2°48.895 11 327 9.3 99090 47
2012-04-10 07:35 51°12.2 2°48.585 6.6 327 9.2 99110 47
2012-04-10 07:36 51°12.112 2°48.276 13.4 330 9.3 99100 48
2012-04-10 07:37 51°12.017 2°47.969 12.5 330 9.2 99110 48
2012-04-10 07:38 51°11.928 2°47.656 12.9 328 9.2 99090 47
2012-04-10 07:39 51°11.851 2°47.334 12.7 287 9.2 99100 47
2012-04-10 07:40 51°11.772 2°47.011 15 327 9.3 99080 48
2012-04-10 07:41 51°11.682 2°46.696 14.8 280 9.3 99090 47
2012-04-10 07:42 51°11.604 2°46.371 11.7 330 9.3 99100 49
2012-04-10 07:43 51°11.519 2°46.052 11.2 283 9.2 99110 48
2012-04-10 07:44 51°11.446 2°45.726 10.8 327 9.2 99100 49
2012-04-10 07:45 51°11.369 2°45.401 11.9 286 9.2 99110 49
2012-04-10 07:46 51°11.274 2°45.089 7.6 332 9.1 99120 48
2012-04-10 07:47 51°11.201 2°44.764 14.5 282 9.1 99110 47
2012-04-10 07:48 51°11.138 2°44.432 14.6 283 9.1 99100 46
2012-04-10 07:49 51°11.06 2°44.109 21.5 326 9.2 99100 45
2012-04-10 07:50 51°11.001 2°43.776 19.7 280 9.2 99090 45
2012-04-10 07:51 51°10.928 2°43.452 7.6 329 9.2 99100 44
2012-04-10 07:52 51°10.86 2°43.122 14.7 280 9.2 99100 43
2012-04-10 07:53 51°10.799 2°42.79 13 329 9.2 99110 43
2012-04-10 07:54 51°10.723 2°42.464 13.4 280 9.2 99110 44
2012-04-10 07:55 51°10.658 2°42.133 12.8 328 9.3 99100 45
2012-04-10 07:56 51°10.583 2°41.807 18.6 283 9.3 99120 44
2012-04-10 07:57 51°10.519 2°41.475 13.7 301 9.2 99120 46
2012-04-10 07:58 51°10.446 2°41.148 7.5 280 9.2 99120 46
2012-04-10 07:59 51°10.376 2°40.821 15.5 328 9.2 99120 45
2012-04-10 08:00 51°10.305 2°40.495 7.4 282 9.2 99120 46
2012-04-10 08:01 51°10.224 2°40.172 12 331 9.1 99140 45
2012-04-10 08:02 51°10.157 2°39.841 12.4 282 9.2 99140 45
2012-04-10 08:03 51°10.106 2°39.501 16.8 327 9.2 99130 45
2012-04-10 08:04 51°10.045 2°39.166 11.6 280 9.2 99120 45
2012-04-10 08:05 51°9.968 2°38.836 8 327 9.2 99140 45
2012-04-10 08:06 51°9.923 2°38.493 14.8 285 9.1 99120 44
2012-04-10 08:07 51°9.872 2°38.151 13.3 303 9.2 99120 44
2012-04-10 08:08 51°9.839 2°37.803 15.1 284 9.2 99120 44
2012-04-10 08:09 51°9.819 2°37.453 5.6 324 9.2 99110 44
2012-04-10 08:10 51°9.781 2°37.105 10.8 286 9.3 99120 44
2012-04-10 08:11 51°9.761 2°36.751 12.8 306 9.2 99120 44
2012-04-10 08:12 51°9.719 2°36.404 11.1 280 9.2 99120 45
2012-04-10 08:13 51°9.66 2°36.062 13.3 302 9.2 99120 44
2012-04-10 08:14 51°9.617 2°35.713 15 279 9.2 99130 44
2012-04-10 08:15 51°9.596 2°35.369 13.8 278 9.2 99140 45
2012-04-10 08:16 51°9.755 2°35.231 7.3 285 9.2 99140 44
2012-04-10 08:17 51°9.94 2°35.312 3.6 284 9.2 99170 45
2012-04-10 08:18 51°10.116 2°35.434 3.1 304 9.2 99170 46
2012-04-10 08:19 51°10.293 2°35.556 5.4 279 9.2 99170 44
2012-04-10 08:20 51°10.468 2°35.688 2.8 310 9.2 99170 44
2012-04-10 08:21 51°10.639 2°35.833 2.3 278 9.2 99180 45
2012-04-10 08:22 51°10.814 2°35.965 4.1 281 9.2 99180 46
2012-04-10 08:23 51°10.991 2°36.091 2.4 286 9.2 99180 46
2012-04-10 08:24 51°11.165 2°36.224 3.2 285 9.2 99180 46
2012-04-10 08:25 51°11.341 2°36.347 4.6 284 9.2 99170 46
2012-04-10 08:26 51°11.515 2°36.48 3.8 280 9.2 99170 45
2012-04-10 08:27 51°11.686 2°36.618 3.3 278 9.2 99160 45
2012-04-10 08:28 51°11.848 2°36.774 1.7 59 9.2 99160 45
2012-04-10 08:29 51°11.973 2°36.997 0.5 278 9.1 99170 45
2012-04-10 08:30 51°12.105 2°37.21 0.5 311 9.2 99170 46
2012-04-10 08:31 51°12.251 2°37.402 1.7 286 9.2 99170 46
2012-04-10 08:32 51°12.415 2°37.555 3.6 310 9.2 99160 46
2012-04-10 08:33 51°12.583 2°37.698 2.7 284 9.2 99170 45
2012-04-10 08:34 51°12.74 2°37.871 2.4 308 9.2 99170 46
2012-04-10 08:35 51°12.893 2°38.051 1.9 87 9.1 99160 47
2012-04-10 08:36 51°13.046 2°38.233 2.1 304 9.1 99160 46
2012-04-10 08:37 51°13.206 2°38.402 2.3 284 9.1 99160 46
2012-04-10 08:38 51°13.365 2°38.568 2.8 284 9.1 99170 45
2012-04-10 08:39 51°13.524 2°38.735 4.1 286 9.1 99160 45
2012-04-10 08:40 51°13.696 2°38.868 5.3 284 9 99160 46
2012-04-10 08:41 51°13.891 2°38.89 7.6 282 9.1 99150 46
2012-04-10 08:42 51°14.09 2°38.851 8.4 284 9 99150 44
2012-04-10 08:43 51°14.29 2°38.821 9.1 281 9.1 99160 44
2012-04-10 08:44 51°14.461 2°38.674 12 306 9.1 99140 44
2012-04-10 08:45 51°14.49 2°38.346 14.1 281 9.1 99130 44
2012-04-10 08:46 51°14.395 2°38.051 14 335 9.1 99140 43
2012-04-10 08:47 51°14.263 2°37.772 15.1 281 9.1 99150 44
2012-04-10 08:48 51°14.145 2°37.472 13.7 333 9.1 99150 43
2012-04-10 08:49 51°14.018 2°37.181 15.2 280 9 99160 43
2012-04-10 08:50 51°13.894 2°36.888 14.3 332 9 99150 43
2012-04-10 08:51 51°13.805 2°36.56 16.4 279 9 99150 45
2012-04-10 08:52 51°13.707 2°36.24 13.3 333 9 99150 44
2012-04-10 08:53 51°13.614 2°35.915 13.6 285 9 99170 44
2012-04-10 08:54 51°13.515 2°35.595 15.1 333 9 99170 45
2012-04-10 08:55 51°13.41 2°35.279 14.5 283 8.9 99160 45
2012-04-10 08:56 51°13.311 2°34.958 12.8 331 8.9 99170 45
2012-04-10 08:57 51°13.206 2°34.643 13.5 278 8.9 99160 45
2012-04-10 08:58 51°13.094 2°34.335 13 283 8.9 99160 46
2012-04-10 08:59 51°13.009 2°34.006 11.2 329 8.9 99150 46
2012-04-10 09:00 51°12.923 2°33.68 12.8 281 9 99150 46
2012-04-10 09:01 51°12.82 2°33.365 12 328 9 99160 46
2012-04-10 09:02 51°12.727 2°33.044 11.4 278 9 99160 46
2012-04-10 09:03 51°12.619 2°32.734 15.6 328 9 99160 45
2012-04-10 09:04 51°12.526 2°32.411 11.3 282 9 99160 45
2012-04-10 09:05 51°12.432 2°32.088 14.3 329 9.1 99160 45
2012-04-10 09:06 51°12.321 2°31.775 13.7 279 9.1 99160 45
2012-04-10 09:07 51°12.218 2°31.454 19 327 9.1 99170 45
2012-04-10 09:08 51°12.126 2°31.125 15.2 280 9.1 99160 44
2012-04-10 09:09 51°12.017 2°30.808 15.9 329 9.1 99180 43
2012-04-10 09:10 51°11.918 2°30.479 13.5 282 9.1 99170 44
2012-04-10 09:11 51°11.807 2°30.159 15.5 330 9.1 99180 44
2012-04-10 09:12 51°11.709 2°29.829 11.6 283 9.1 99170 44
2012-04-10 09:13 51°11.605 2°29.502 15.6 331 9.1 99170 44
2012-04-10 09:14 51°11.498 2°29.176 16.2 283 9 99190 44
2012-04-10 09:15 51°11.39 2°28.851 13.9 286 9 99180 44
2012-04-10 09:16 51°11.3 2°28.514 11.7 325 9 99180 44
2012-04-10 09:17 51°11.292 2°28.148 14.4 282 9.1 99160 44
2012-04-10 09:18 51°11.34 2°27.796 10.9 304 9.1 99160 44
2012-04-10 09:19 51°11.464 2°27.51 9.2 280 9 99180 45
2012-04-10 09:20 51°11.613 2°27.283 8.3 306 9 99190 45
2012-04-10 09:21 51°11.772 2°27.102 4.4 286 9 99180 45
2012-04-10 09:22 51°11.924 2°26.914 7.8 307 9 99180 45
2012-04-10 09:23 51°12.107 2°26.819 5.6 279 9 99180 45
2012-04-10 09:24 51°12.287 2°26.91 1.2 302 9 99190 46
2012-04-10 09:25 51°12.429 2°27.105 0.6 279 9 99200 45
2012-04-10 09:26 51°12.57 2°27.3 2.1 307 9.1 99210 45
2012-04-10 09:27 51°12.735 2°27.446 2.4 284 9.1 99210 45
2012-04-10 09:28 51°12.892 2°27.609 2.6 286 9.2 99210 46
2012-04-10 09:29 51°13.04 2°27.794 2.2 301 9.2 99200 46
2012-04-10 09:30 51°13.196 2°27.958 1.7 287 9.2 99200 45
2012-04-10 09:31 51°13.346 2°28.137 1.6 301 9.2 99210 44
2012-04-10 09:32 51°13.488 2°28.327 1.8 284 9.3 99210 45
2012-04-10 09:33 51°13.64 2°28.5 4.4 302 9.3 99200 45
2012-04-10 09:34 51°13.791 2°28.671 1.5 283 9.3 99200 44
2012-04-10 09:35 51°13.938 2°28.856 2.1 309 9.3 99200 45
2012-04-10 09:36 51°14.085 2°29.037 2.6 279 9.3 99200 46
2012-04-10 09:37 51°14.236 2°29.211 1.6 307 9.2 99200 44
2012-04-10 09:38 51°14.379 2°29.404 3.3 281 9.2 99200 46
2012-04-10 09:39 51°14.531 2°29.58 3.8 279 9.1 99190 44
2012-04-10 09:40 51°14.684 2°29.75 3.4 304 9.1 99200 44
2012-04-10 09:41 51°14.829 2°29.938 1.3 287 9.1 99190 45
2012-04-10 09:42 51°14.976 2°30.122 3.5 302 9.1 99190 45
2012-04-10 09:43 51°15.126 2°30.298 1.5 305 9.1 99190 46
2012-04-10 09:44 51°15.279 2°30.466 2.6 56 9.1 99180 46
2012-04-10 09:45 51°15.427 2°30.638 1.5 291 9 99180 45
2012-04-10 09:46 51°15.571 2°30.815 1.8 51 9 99180 44
2012-04-10 09:47 51°15.715 2°30.99 1.8 281 9 99180 45
2012-04-10 09:48 51°15.865 2°31.153 2.6 309 9 99180 44
2012-04-10 09:49 51°16.013 2°31.322 1.9 82 9.1 99180 46
2012-04-10 09:50 51°16.155 2°31.503 2.3 51 9 99180 44
2012-04-10 09:51 51°16.299 2°31.688 1.6 287 9 99180 43
2012-04-10 09:52 51°16.448 2°31.857 4.2 58 9 99180 44
2012-04-10 09:53 51°16.594 2°32.033 3.8 77 9 99180 43
2012-04-10 09:54 51°16.73 2°32.223 1.5 309 9 99180 43
2012-04-10 09:55 51°16.87 2°32.404 4.2 77 9 99190 44
2012-04-10 09:56 51°17.013 2°32.577 1.4 311 9 99190 42
2012-04-10 09:57 51°17.147 2°32.764 2.9 80 9 99190 43
2012-04-10 09:58 51°17.239 2°33.011 1.9 56 9.1 99190 43
2012-04-10 09:59 51°17.311 2°33.27 0.5 40 9.1 99190 43
2012-04-10 10:00 51°17.387 2°33.528 2.7 52 9.1 99190 42
2012-04-10 10:01 51°17.467 2°33.783 1.9 81 9.1 99190 42
2012-04-10 10:02 51°17.547 2°34.035 -999 40 9.1 99190 42
2012-04-10 10:03 51°17.618 2°34.292 3.1 34 9.2 99190 44
2012-04-10 10:04 51°17.633 2°34.58 3.6 34 9.2 99190 43
2012-04-10 10:05 51°17.654 2°34.859 2.7 24 9.1 99190 43
2012-04-10 10:06 51°17.66 2°35.14 4.3 26 9.1 99190 43
2012-04-10 10:07 51°17.592 2°35.405 8.1 10 9 99180 42
2012-04-10 10:08 51°17.476 2°35.643 7 9 9 99170 43
2012-04-10 10:09 51°17.353 2°35.88 8.7 8 8.9 99180 45
2012-04-10 10:10 51°17.208 2°36.098 7.7 4 8.9 99170 45
2012-04-10 10:11 51°17.068 2°36.324 7.3 10 8.8 99170 46
2012-04-10 10:12 51°17.061 2°36.586 1.2 38 8.8 99190 45
2012-04-10 10:13 51°17.194 2°36.755 1.5 77 8.8 99200 47
2012-04-10 10:14 51°17.323 2°36.945 1.5 48 8.9 99200 45
2012-04-10 10:15 51°17.446 2°37.145 0.4 78 9 99200 46
2012-04-10 10:16 51°17.564 2°37.347 2.3 52 9.1 99190 47
2012-04-10 10:17 51°17.681 2°37.554 -999 78 9.2 99190 45
2012-04-10 10:18 51°17.808 2°37.745 1.5 57 9.2 99200 45
2012-04-10 10:19 51°17.935 2°37.935 2.4 80 9.2 99200 43
2012-04-10 10:20 51°18.057 2°38.136 0.5 50 9.3 99190 43
2012-04-10 10:21 51°18.175 2°38.341 1.8 43 9.3 99200 44
2012-04-10 10:22 51°18.297 2°38.537 1 58 9.4 99190 42
2012-04-10 10:23 51°18.422 2°38.732 0.8 73 9.4 99200 44
2012-04-10 10:24 51°18.568 2°38.901 1.2 311 9.4 99200 43
2012-04-10 10:25 51°18.724 2°39.029 2.9 284 9.4 99200 43
2012-04-10 10:26 51°18.903 2°39.042 6.1 302 9.4 99190 42
2012-04-10 10:27 51°19.042 2°38.834 13.6 280 9.4 99180 43
2012-04-10 10:28 51°19.095 2°38.49 13.7 307 9.3 99150 43
2012-04-10 10:29 51°19.126 2°38.128 11.2 280 9.2 99140 44
2012-04-10 10:30 51°19.16 2°37.77 13.7 309 9.1 99150 43
2012-04-10 10:31 51°19.217 2°37.424 10.9 282 9 99150 44
2012-04-10 10:32 51°19.275 2°37.076 12 304 9 99150 44
2012-04-10 10:33 51°19.321 2°36.721 12.4 285 8.9 99140 45
2012-04-10 10:34 51°19.362 2°36.363 11.9 302 8.9 99140 45
2012-04-10 10:35 51°19.412 2°36.01 10.4 283 8.9 99140 45
2012-04-10 10:36 51°19.469 2°35.661 13.1 306 8.9 99130 44
2012-04-10 10:37 51°19.515 2°35.309 11.3 305 8.9 99140 44
2012-04-10 10:38 51°19.557 2°34.947 13.9 305 8.9 99150 44
2012-04-10 10:39 51°19.607 2°34.603 13 282 8.9 99140 44
2012-04-10 10:40 51°19.669 2°34.26 11.3 302 8.9 99140 44
2012-04-10 10:41 51°19.745 2°33.929 13.3 282 8.9 99150 44
2012-04-10 10:42 51°19.814 2°33.59 13.5 307 8.9 99140 44
2012-04-10 10:43 51°19.87 2°33.242 11.3 281 8.9 99140 44
2012-04-10 10:44 51°19.935 2°32.896 11.7 283 8.9 99140 44
2012-04-10 10:45 51°20.004 2°32.551 13.2 305 8.9 99140 44
2012-04-10 10:46 51°20.065 2°32.202 12.9 285 8.9 99140 44
2012-04-10 10:47 51°20.118 2°31.847 6.5 283 8.9 99150 44
2012-04-10 10:48 51°20.179 2°31.497 11.3 301 8.9 99150 44
2012-04-10 10:49 51°20.252 2°31.153 13.8 302 8.9 99150 44
2012-04-10 10:50 51°20.316 2°30.801 13.7 286 8.9 99150 44
2012-04-10 10:51 51°20.379 2°30.446 6.1 304 8.9 99150 45
2012-04-10 10:52 51°20.46 2°30.102 12 282 8.9 99150 44
2012-04-10 10:53 51°20.538 2°29.769 12.6 283 8.9 99140 45
2012-04-10 10:54 51°20.603 2°29.428 10.6 307 8.9 99150 45
2012-04-10 10:55 51°20.67 2°29.092 11.8 282 8.9 99150 46
2012-04-10 10:56 51°20.744 2°28.758 10.2 308 8.9 99150 45
2012-04-10 10:57 51°20.839 2°28.446 11.8 284 8.9 99150 46
2012-04-10 10:58 51°20.952 2°28.155 11.1 283 8.9 99140 45
2012-04-10 10:59 51°21.058 2°27.849 8.7 305 8.9 99150 46
2012-04-10 11:00 51°21.168 2°27.541 9.5 280 8.9 99130 46
2012-04-10 11:01 51°21.263 2°27.225 10.1 303 8.9 99140 46
2012-04-10 11:02 51°21.361 2°26.915 10.4 282 8.9 99140 45
2012-04-10 11:03 51°21.471 2°26.622 8.8 305 8.9 99130 45
2012-04-10 11:04 51°21.573 2°26.313 5.4 277 8.9 99130 45
2012-04-10 11:05 51°21.677 2°25.998 12.2 281 8.9 99140 45
2012-04-10 11:06 51°21.777 2°25.689 9 303 8.8 99130 45
2012-04-10 11:07 51°21.884 2°25.384 9.8 282 8.9 99120 45
2012-04-10 11:08 51°21.99 2°25.077 5 308 8.8 99130 46
2012-04-10 11:09 51°22.107 2°24.781 8 282 8.8 99120 46
2012-04-10 11:10 51°22.269 2°24.573 8.4 279 8.8 99140 46
2012-04-10 11:11 51°22.43 2°24.372 7.6 281 8.8 99140 46
2012-04-10 11:12 51°22.59 2°24.166 8.6 308 8.8 99140 46
2012-04-10 11:13 51°22.753 2°23.972 8.1 283 8.8 99150 46
2012-04-10 11:14 51°22.912 2°23.779 7.4 309 8.8 99150 45
2012-04-10 11:15 51°23.073 2°23.602 8.6 287 8.9 99150 45
2012-04-10 11:16 51°23.234 2°23.42 8.3 304 8.9 99140 46
2012-04-10 11:17 51°23.393 2°23.255 6.4 280 8.9 99140 46
2012-04-10 11:18 51°23.557 2°23.099 7 304 8.9 99140 46
2012-04-10 11:19 51°23.723 2°22.947 7.5 279 8.9 99120 46
2012-04-10 11:20 51°23.889 2°22.79 7.3 301 8.9 99130 46
2012-04-10 11:21 51°24.059 2°22.638 6.8 282 8.9 99130 46
2012-04-10 11:22 51°24.227 2°22.482 7.6 308 8.9 99140 45
2012-04-10 11:23 51°24.395 2°22.323 7.1 280 8.9 99140 46
2012-04-10 11:24 51°24.563 2°22.171 8.2 308 9 99140 45
2012-04-10 11:25 51°24.729 2°22.013 8.1 305 9 99130 45
2012-04-10 11:26 51°24.901 2°21.956 2.4 74 9 99150 45
2012-04-10 11:27 51°25.059 2°22.07 1.4 82 9 99150 45
2012-04-10 11:28 51°25.209 2°22.204 1.4 55 9 99150 46
2012-04-10 11:29 51°25.357 2°22.356 2 52 9 99160 47
2012-04-10 11:30 51°25.506 2°22.503 2.6 82 9.1 99160 45
2012-04-10 11:31 51°25.654 2°22.645 1.7 52 9.2 99160 45
2012-04-10 11:32 51°25.807 2°22.781 1.3 77 9.2 99160 46
2012-04-10 11:33 51°25.959 2°22.927 0.2 58 9.2 99160 45
2012-04-10 11:34 51°26.109 2°23.075 1.7 80 9.2 99150 45
2012-04-10 11:35 51°26.256 2°23.227 1.3 57 9.2 99160 45
2012-04-10 11:36 51°26.408 2°23.376 2.1 74 9.2 99160 45
2012-04-10 11:37 51°26.556 2°23.53 0.1 54 9.2 99150 44
2012-04-10 11:38 51°26.704 2°23.683 0.7 78 9.3 99160 46
2012-04-10 11:39 51°26.85 2°23.833 2 81 9.3 99160 45
2012-04-10 11:40 51°26.998 2°23.99 1 58 9.3 99170 45
2012-04-10 11:41 51°27.148 2°24.139 0.4 82 9.3 99170 45
2012-04-10 11:42 51°27.297 2°24.288 1.6 57 9.4 99170 46
2012-04-10 11:43 51°27.444 2°24.448 0.2 83 9.4 99170 45
2012-04-10 11:44 51°27.586 2°24.616 2.5 30 9.4 99160 44
2012-04-10 11:45 51°27.624 2°24.893 5.7 7 9.4 99160 45
2012-04-10 11:46 51°27.508 2°25.151 11.9 360 9.1 99140 46
2012-04-10 11:47 51°27.351 2°25.369 13.4 358 8.9 99130 47
2012-04-10 11:48 51°27.187 2°25.587 10.5 358 8.7 99130 47
2012-04-10 11:49 51°27.031 2°25.8 10.8 357 8.7 99130 46
2012-04-10 11:50 51°26.865 2°26.004 10.1 358 8.6 99130 47
2012-04-10 11:51 51°26.703 2°26.211 12.8 356 8.6 99120 47
2012-04-10 11:52 51°26.543 2°26.42 11 356 8.6 99130 47
2012-04-10 11:53 51°26.38 2°26.625 9.7 357 8.5 99130 47
2012-04-10 11:54 51°26.218 2°26.83 12.3 360 8.6 99120 47
2012-04-10 11:55 51°26.059 2°27.037 10.1 358 8.6 99130 46
2012-04-10 11:56 51°25.901 2°27.244 10 360 8.6 99140 46
2012-04-10 11:57 51°25.757 2°27.47 9.7 2 8.6 99140 46
2012-04-10 11:58 51°25.637 2°27.726 9.1 2 8.6 99150 46
2012-04-10 11:59 51°25.573 2°28.008 5 17 8.6 99150 45
2012-04-10 12:00 51°25.683 2°28.236 1 302 8.7 99170 47
2012-04-10 12:01 51°25.856 2°28.375 2.6 76 8.8 99170 46
2012-04-10 12:02 51°26.036 2°28.5 3.5 75 8.9 99160 45
2012-04-10 12:03 51°26.21 2°28.641 2 78 8.9 99160 46
2012-04-10 12:04 51°26.377 2°28.798 2.5 79 9 99160 45
2012-04-10 12:05 51°26.544 2°28.957 2.6 81 9 99160 44
2012-04-10 12:06 51°26.712 2°29.111 0.1 306 9 99160 43
2012-04-10 12:07 51°26.882 2°29.262 2.1 77 9 99160 44
2012-04-10 12:08 51°27.055 2°29.409 2.8 80 9 99160 44
2012-04-10 12:09 51°27.223 2°29.543 0.9 283 9 99150 45
2012-04-10 12:10 51°27.392 2°29.688 1.9 82 9 99160 44
2012-04-10 12:11 51°27.564 2°29.834 1.5 281 9.1 99160 45
2012-04-10 12:12 51°27.733 2°29.979 2.5 55 9.2 99160 46
2012-04-10 12:13 51°27.9 2°30.127 0.9 73 9.2 99160 44
2012-04-10 12:14 51°28.069 2°30.277 1.1 77 9.2 99160 45
2012-04-10 12:15 51°28.237 2°30.429 1.6 74 9.2 99160 44
2012-04-10 12:16 51°28.402 2°30.587 2.4 75 9.2 99160 45
2012-04-10 12:17 51°28.572 2°30.741 1.7 76 9.2 99160 44
2012-04-10 12:18 51°28.747 2°30.879 2.4 52 9.2 99160 44
2012-04-10 12:19 51°28.921 2°31.019 2.8 78 9.2 99160 45
2012-04-10 12:20 51°29.094 2°31.162 2.4 73 9.2 99160 45
2012-04-10 12:21 51°29.262 2°31.313 3.6 76 9.3 99160 44
2012-04-10 12:22 51°29.434 2°31.459 2.7 76 9.2 99160 45
2012-04-10 12:23 51°29.608 2°31.602 0.5 87 9.2 99160 45
2012-04-10 12:24 51°29.776 2°31.759 0.3 75 9.2 99160 44
2012-04-10 12:25 51°29.949 2°31.898 2.3 56 9.3 99160 45
2012-04-10 12:26 51°30.121 2°32.038 0.2 278 9.2 99160 44
2012-04-10 12:27 51°30.29 2°32.187 1.5 75 9.3 99150 45
2012-04-10 12:27 51°30.333 2°32.223 1.1 18 9.3 99150 45
2012-04-10 12:28 51°30.502 2°32.373 2.4 27 9.4 99150 45
2012-04-10 12:29 51°30.675 2°32.517 2 257 9.4 99160 45
2012-04-10 12:30 51°30.848 2°32.654 1.6 29 9.4 99150 44
2012-04-10 12:31 51°31.021 2°32.796 0.1 27 9.4 99150 44
2012-04-10 12:32 51°31.19 2°32.951 1.2 261 9.5 99160 45
2012-04-10 12:33 51°31.367 2°33.089 1.3 21 9.5 99160 44
2012-04-10 12:34 51°31.542 2°33.227 1.6 250 9.6 99160 45
2012-04-10 12:35 51°31.72 2°33.356 0.8 268 9.6 99160 45
2012-04-10 12:36 51°31.899 2°33.482 2.1 268 9.6 99160 44
2012-04-10 12:37 51°32.076 2°33.621 2.1 30 9.6 99160 43
2012-04-10 12:38 51°32.249 2°33.756 1.6 258 9.5 99160 44
2012-04-10 12:39 51°32.424 2°33.903 2.5 270 9.6 99160 44
2012-04-10 12:40 51°32.602 2°34.036 2.2 260 9.6 99160 43
2012-04-10 12:41 51°32.778 2°34.173 1.3 265 9.6 99160 45
2012-04-10 12:42 51°32.958 2°34.304 2.4 269 9.5 99160 44
2012-04-10 12:43 51°33.134 2°34.448 1.7 270 9.5 99160 44
2012-04-10 12:44 51°33.308 2°34.583 3.1 25 9.5 99150 45
2012-04-10 12:45 51°33.483 2°34.727 0.2 269 9.5 99160 43
2012-04-10 12:46 51°33.657 2°34.864 3.5 20 9.5 99160 45
2012-04-10 12:47 51°33.831 2°35.011 2.8 20 9.4 99160 44
2012-04-10 12:48 51°33.893 2°35.289 8.1 10 9.4 99150 44
2012-04-10 12:49 51°33.763 2°35.541 11.4 355 9.1 99130 45
2012-04-10 12:50 51°33.591 2°35.75 13.4 356 8.9 99120 45
2012-04-10 12:51 51°33.418 2°35.954 12.5 352 8.7 99110 46
2012-04-10 12:52 51°33.246 2°36.151 13.4 355 8.6 99120 46
2012-04-10 12:53 51°33.078 2°36.355 12.4 351 8.6 99130 47
2012-04-10 12:54 51°32.906 2°36.549 10.3 356 8.6 99140 47
2012-04-10 12:55 51°32.734 2°36.745 9.5 353 8.5 99130 48
2012-04-10 12:56 51°32.562 2°36.939 9.1 353 8.5 99150 48
2012-04-10 12:57 51°32.39 2°37.135 9.1 350 8.5 99150 49
2012-04-10 12:58 51°32.214 2°37.325 11.1 350 8.5 99160 48
2012-04-10 12:59 51°32.034 2°37.506 10.6 348 8.4 99150 48
2012-04-10 13:00 51°31.86 2°37.704 11.8 349 8.4 99150 48
2012-04-10 13:01 51°31.682 2°37.899 14.6 350 8.4 99150 48
2012-04-10 13:02 51°31.5 2°38.084 10.5 348 8.4 99150 49
2012-04-10 13:03 51°31.312 2°38.244 10.4 347 8.4 99150 49
2012-04-10 13:04 51°31.124 2°38.406 13.2 350 8.5 99150 48
2012-04-10 13:05 51°30.94 2°38.581 10.2 350 8.4 99150 48
2012-04-10 13:06 51°30.755 2°38.751 10.6 349 8.4 99150 46
2012-04-10 13:07 51°30.57 2°38.916 10.6 351 8.5 99150 47
2012-04-10 13:08 51°30.395 2°39.108 11.1 352 8.5 99140 47
2012-04-10 13:09 51°30.222 2°39.299 11.2 352 8.5 99140 47
2012-04-10 13:10 51°30.049 2°39.483 10.8 351 8.5 99140 46
2012-04-10 13:11 51°29.871 2°39.658 12.3 354 8.5 99150 46
2012-04-10 13:12 51°29.699 2°39.846 11.8 352 8.5 99150 46
2012-04-10 13:13 51°29.526 2°40.035 10.3 352 8.5 99150 46
2012-04-10 13:14 51°29.351 2°40.22 10 352 8.5 99150 44
2012-04-10 13:15 51°29.18 2°40.414 10.1 353 8.5 99150 45
2012-04-10 13:16 51°29.005 2°40.605 10.1 353 8.6 99160 44
2012-04-10 13:17 51°28.835 2°40.806 9.9 354 8.6 99150 45
2012-04-10 13:18 51°28.661 2°40.998 10.7 354 8.6 99150 44
2012-04-10 13:19 51°28.49 2°41.199 9.1 355 8.6 99160 44
2012-04-10 13:20 51°28.313 2°41.388 10.3 354 8.6 99150 44
2012-04-10 13:21 51°28.14 2°41.586 9 354 8.6 99150 44
2012-04-10 13:22 51°27.968 2°41.787 9.5 356 8.6 99150 43
2012-04-10 13:23 51°27.798 2°41.991 9.8 355 8.6 99160 44
2012-04-10 13:24 51°27.628 2°42.19 8.9 356 8.6 99160 45
2012-04-10 13:25 51°27.458 2°42.389 10 355 8.6 99150 45
2012-04-10 13:26 51°27.284 2°42.582 9.2 354 8.6 99150 45
2012-04-10 13:27 51°27.116 2°42.782 12.4 355 8.6 99140 44
2012-04-10 13:28 51°26.938 2°42.958 14.1 354 8.6 99140 44
2012-04-10 13:29 51°26.762 2°43.135 12.4 357 8.6 99150 44
2012-04-10 13:30 51°26.592 2°43.327 10.8 355 8.6 99140 43
2012-04-10 13:31 51°26.418 2°43.501 11.8 356 8.6 99140 43
2012-04-10 13:32 51°26.247 2°43.682 9 359 8.7 99140 43
2012-04-10 13:33 51°26.078 2°43.869 10.3 356 8.6 99150 43
2012-04-10 13:34 51°25.903 2°44.037 10 359 8.6 99140 43
2012-04-10 13:35 51°25.731 2°44.214 9.9 356 8.7 99140 43
2012-04-10 13:36 51°25.557 2°44.392 9.3 356 8.7 99140 44
2012-04-10 13:37 51°25.384 2°44.573 9.7 356 8.7 99150 43
2012-04-10 13:38 51°25.214 2°44.761 9.3 354 8.7 99140 42
2012-04-10 13:39 51°25.037 2°44.934 10.5 353 8.6 99150 43
2012-04-10 13:40 51°24.861 2°45.107 10.5 353 8.7 99150 43
2012-04-10 13:41 51°24.69 2°45.29 9.6 354 8.7 99150 43
2012-04-10 13:42 51°24.518 2°45.47 7.5 355 8.7 99150 44
2012-04-10 13:43 51°24.35 2°45.645 8.1 355 8.7 99160 43
2012-04-10 13:44 51°24.182 2°45.823 8.9 353 8.7 99150 45
2012-04-10 13:45 51°24.014 2°45.999 8.6 356 8.6 99150 43
2012-04-10 13:46 51°23.847 2°46.173 8.1 353 8.7 99140 44
2012-04-10 13:47 51°23.682 2°46.353 8.2 360 8.7 99150 44
2012-04-10 13:48 51°23.519 2°46.541 8.3 354 8.6 99140 44
2012-04-10 13:49 51°23.352 2°46.721 7.8 355 8.7 99140 44
2012-04-10 13:50 51°23.182 2°46.899 8.2 357 8.7 99140 45
2012-04-10 13:51 51°23.017 2°47.094 9.4 356 8.7 99140 43
2012-04-10 13:52 51°22.846 2°47.276 8.3 353 8.7 99140 44
2012-04-10 13:53 51°22.677 2°47.462 8.5 354 8.7 99130 43
2012-04-10 13:54 51°22.506 2°47.65 8 356 8.7 99130 44
2012-04-10 13:55 51°22.335 2°47.841 7.4 354 8.7 99130 43
2012-04-10 13:56 51°22.158 2°48.016 8.1 351 8.7 99130 43
2012-04-10 13:57 51°21.984 2°48.206 8.9 354 8.7 99130 43
2012-04-10 13:58 51°21.815 2°48.411 7.5 354 8.7 99130 43
2012-04-10 13:59 51°21.641 2°48.604 6.9 354 8.8 99130 43
2012-04-10 14:00 51°21.467 2°48.789 8.4 355 8.8 99130 43
2012-04-10 14:01 51°21.298 2°48.98 7.6 355 8.8 99130 43
2012-04-10 14:02 51°21.125 2°49.154 8.2 356 8.8 99130 42
2012-04-10 14:03 51°20.951 2°49.317 7.2 354 8.8 99130 42
2012-04-10 14:04 51°20.781 2°49.489 7.9 354 8.9 99130 43
2012-04-10 14:05 51°20.609 2°49.639 8 352 8.8 99130 43
2012-04-10 14:06 51°20.437 2°49.796 7.6 355 8.8 99130 43
2012-04-10 14:07 51°20.265 2°49.962 7.7 355 8.8 99130 44
2012-04-10 14:08 51°20.095 2°50.135 7.5 356 8.9 99130 43
2012-04-10 14:09 51°19.92 2°50.303 8 353 8.8 99130 44
2012-04-10 14:10 51°19.742 2°50.454 7.9 353 8.9 99130 44
2012-04-10 14:11 51°19.566 2°50.623 7.9 352 8.9 99130 44
2012-04-10 14:12 51°19.391 2°50.798 8.2 355 8.9 99130 45
2012-04-10 14:13 51°19.212 2°50.95 8.8 351 8.8 99130 44
2012-04-10 14:14 51°19.029 2°51.083 7.8 350 8.8 99130 45
2012-04-10 14:15 51°18.85 2°51.236 8.1 351 8.8 99140 44
2012-04-10 14:16 51°18.679 2°51.417 8.1 350 8.8 99140 46
2012-04-10 14:17 51°18.498 2°51.537 8.6 348 8.8 99140 44
2012-04-10 14:18 51°18.315 2°51.635 8.2 346 8.8 99140 45
2012-04-10 14:19 51°18.137 2°51.761 7.9 348 8.8 99140 46
2012-04-10 14:20 51°17.957 2°51.884 7.8 348 8.8 99150 46
2012-04-10 14:21 51°17.779 2°52.007 8.4 353 8.8 99140 44
2012-04-10 14:22 51°17.598 2°52.117 7.6 349 8.8 99150 45
2012-04-10 14:23 51°17.417 2°52.222 9 353 8.8 99150 44
2012-04-10 14:24 51°17.237 2°52.341 7.5 350 8.8 99150 45
2012-04-10 14:25 51°17.06 2°52.475 7.2 354 8.9 99150 44
2012-04-10 14:26 51°16.885 2°52.625 7.9 354 8.9 99150 44
2012-04-10 14:27 51°16.714 2°52.795 7.8 353 8.9 99160 44
2012-04-10 14:28 51°16.535 2°52.938 7.9 351 8.9 99150 44
2012-04-10 14:29 51°16.354 2°53.068 8.6 352 8.9 99150 44
2012-04-10 14:30 51°16.178 2°53.222 7.6 352 8.9 99160 44
2012-04-10 14:31 51°16.003 2°53.376 6.6 353 9 99150 43
2012-04-10 14:32 51°15.828 2°53.534 7.4 357 9 99150 43
2012-04-10 14:33 51°15.658 2°53.712 5.9 356 9 99150 43
2012-04-10 14:34 51°15.486 2°53.881 6.6 357 9 99150 44
2012-04-10 14:35 51°15.312 2°54.039 7.7 356 9 99150 43
2012-04-10 14:36 51°15.154 2°54.243 6 358 9 99160 45
2012-04-10 14:37 51°15.003 2°54.471 5.8 358 9 99160 45
2012-04-10 14:38 51°14.852 2°54.69 5.5 359 9 99160 44
2012-04-10 14:39 51°14.693 2°54.9 5.7 357 9 99170 45
2012-04-10 14:40 51°14.528 2°55.078 7.7 1 9 99170 45
2012-04-10 14:41 51°14.356 2°55.214 5.2 7 9 99170 45
2012-04-10 14:42 51°14.226 2°55.333 4.9 7 9.1 99180 46
2012-04-10 14:43 51°14.108 2°55.425 3.3 10 9.2 99180 45
2012-04-10 14:44 51°13.995 2°55.508 3.2 352 9.2 99180 45
2012-04-10 14:45 51°13.893 2°55.58 2.9 349 9.3 99180 43
2012-04-10 14:46 51°13.804 2°55.652 3.8 14 9.4 99180 42
2012-04-10 14:47 51°13.733 2°55.746 2.3 17 9.5 99180 44
2012-04-10 14:48 51°13.686 2°55.838 1.4 18 9.6 99180 43
2012-04-10 14:49 51°13.651 2°55.922 1.9 28 9.7 99180 42
2012-04-10 14:50 51°13.637 2°55.998 2.3 36 9.7 99180 42
2012-04-10 14:51 51°13.636 2°56.019 3.1 39 9.8 99180 43